createdAt,value
2018-07-20T00:00:06.109Z,19.80
2018-07-20T00:02:35.318Z,19.80
2018-07-20T00:05:04.661Z,19.80
2018-07-20T00:07:33.895Z,19.80
2018-07-20T00:10:03.003Z,19.90
2018-07-20T00:12:32.165Z,19.80
2018-07-20T00:15:01.386Z,19.70
2018-07-20T00:17:30.559Z,19.70
2018-07-20T00:19:59.733Z,19.70
2018-07-20T00:22:29.015Z,19.60
2018-07-20T00:24:58.253Z,19.60
2018-07-20T00:27:27.470Z,19.60
2018-07-20T00:29:56.647Z,19.60
2018-07-20T00:32:25.766Z,19.60
2018-07-20T00:34:55.039Z,19.70
2018-07-20T00:37:24.277Z,19.60
2018-07-20T00:39:53.477Z,19.90
2018-07-20T00:42:22.872Z,20.10
2018-07-20T00:44:52.893Z,20.20
2018-07-20T00:47:23.002Z,20.20
2018-07-20T00:49:53.021Z,20.30
2018-07-20T00:52:23.094Z,20.30
2018-07-20T00:54:53.023Z,20.30
2018-07-20T00:57:23.091Z,20.30
2018-07-20T00:59:52.981Z,20.00
2018-07-20T01:02:22.126Z,19.80
2018-07-20T01:04:51.390Z,19.70
2018-07-20T01:07:20.578Z,19.70
2018-07-20T01:09:49.695Z,19.70
2018-07-20T01:12:18.813Z,19.90
2018-07-20T01:14:48.128Z,19.80
2018-07-20T01:17:17.285Z,19.90
2018-07-20T01:19:46.478Z,20.10
2018-07-20T01:22:15.674Z,20.20
2018-07-20T01:24:44.826Z,20.10
2018-07-20T01:27:13.965Z,20.20
2018-07-20T01:29:43.167Z,19.90
2018-07-20T01:32:12.258Z,19.60
2018-07-20T01:34:41.505Z,19.40
2018-07-20T01:37:10.786Z,19.10
2018-07-20T01:39:39.967Z,18.80
2018-07-20T01:42:09.814Z,18.60
2018-07-20T01:44:39.101Z,18.60
2018-07-20T01:47:08.234Z,18.70
2018-07-20T01:49:37.365Z,18.70
2018-07-20T01:52:06.538Z,18.90
2018-07-20T01:54:35.725Z,18.90
2018-07-20T01:57:04.925Z,18.90
2018-07-20T01:59:34.216Z,18.80
2018-07-20T02:02:03.388Z,18.60
2018-07-20T02:04:32.553Z,18.50
2018-07-20T02:07:01.662Z,18.50
2018-07-20T02:09:30.926Z,18.50
2018-07-20T02:12:00.047Z,18.60
2018-07-20T02:14:29.227Z,18.60
2018-07-20T02:16:58.430Z,18.50
2018-07-20T02:19:27.599Z,18.40
2018-07-20T02:21:56.801Z,18.30
2018-07-20T02:24:27.057Z,18.20
2018-07-20T02:26:56.313Z,18.20
2018-07-20T02:29:25.525Z,18.30
2018-07-20T02:31:54.630Z,18.20
2018-07-20T02:34:24.533Z,18.10
2018-07-20T02:36:54.365Z,18.10
2018-07-20T02:39:24.450Z,18.10
2018-07-20T02:41:54.446Z,18.10
2018-07-20T02:44:24.621Z,18.00
2018-07-20T02:46:54.637Z,17.90
2018-07-20T02:49:24.630Z,17.90
2018-07-20T02:51:54.630Z,17.80
2018-07-20T02:54:24.605Z,17.70
2018-07-20T02:56:54.684Z,17.70
2018-07-20T02:59:24.790Z,17.90
2018-07-20T03:01:54.791Z,18.00
2018-07-20T03:04:25.933Z,17.90
2018-07-20T03:06:55.274Z,18.10
2018-07-20T03:09:25.046Z,18.30
2018-07-20T03:11:54.990Z,18.50
2018-07-20T03:14:25.026Z,18.60
2018-07-20T03:16:54.966Z,18.70
2018-07-20T03:19:25.178Z,19.00
2018-07-20T03:21:55.122Z,19.00
2018-07-20T03:24:25.133Z,18.40
2018-07-20T03:26:55.194Z,18.30
2018-07-20T03:29:25.187Z,18.40
2018-07-20T03:31:55.391Z,18.10
2018-07-20T03:34:25.266Z,18.10
2018-07-20T03:36:55.385Z,18.10
2018-07-20T03:39:25.426Z,18.00
2018-07-20T03:41:55.357Z,18.00
2018-07-20T03:44:25.464Z,18.00
2018-07-20T03:46:55.566Z,18.10
2018-07-20T03:49:25.554Z,17.90
2018-07-20T03:51:55.543Z,17.80
2018-07-20T03:54:25.621Z,17.70
2018-07-20T03:56:55.598Z,17.80
2018-07-20T03:59:25.730Z,18.00
2018-07-20T04:01:55.734Z,18.00
2018-07-20T04:04:25.706Z,17.80
2018-07-20T04:06:55.898Z,17.70
2018-07-20T04:09:25.848Z,18.00
2018-07-20T04:11:55.913Z,17.90
2018-07-20T04:14:26.709Z,18.20
2018-07-20T04:16:55.974Z,18.30
2018-07-20T04:19:27.020Z,18.50
2018-07-20T04:21:56.205Z,18.40
2018-07-20T04:24:26.905Z,18.20
2018-07-20T04:26:56.157Z,18.10
2018-07-20T04:29:27.197Z,18.10
2018-07-20T04:31:56.466Z,18.20
2018-07-20T04:34:27.363Z,18.30
2018-07-20T04:36:56.486Z,18.40
2018-07-20T04:39:28.369Z,18.30
2018-07-20T04:41:57.586Z,18.40
2018-07-20T04:44:27.524Z,18.20
2018-07-20T04:46:56.737Z,18.50
2018-07-20T04:49:27.619Z,18.50
2018-07-20T04:51:56.741Z,18.70
2018-07-20T04:54:27.409Z,18.60
2018-07-20T04:56:56.650Z,18.50
2018-07-20T04:59:27.393Z,18.30
2018-07-20T05:01:56.538Z,18.40
2018-07-20T05:04:27.765Z,18.40
2018-07-20T05:06:56.890Z,18.40
2018-07-20T05:09:27.521Z,18.60
2018-07-20T05:11:56.709Z,18.70
2018-07-20T05:14:27.965Z,18.70
2018-07-20T05:16:57.190Z,18.90
2018-07-20T05:40:54.049Z,20.10
2018-07-20T05:43:23.202Z,20.20
2018-07-20T05:45:52.394Z,20.30
2018-07-20T05:48:21.641Z,20.50
2018-07-20T05:50:50.914Z,20.60
2018-07-20T05:53:20.126Z,20.70
2018-07-20T05:55:49.301Z,20.90
2018-07-20T05:58:18.572Z,21.10
2018-07-20T06:00:47.854Z,21.20
2018-07-20T06:03:16.982Z,21.40
2018-07-20T06:05:46.166Z,21.50
2018-07-20T06:08:15.418Z,21.60
2018-07-20T06:10:44.473Z,21.80
2018-07-20T06:13:13.726Z,21.90
2018-07-20T06:15:42.903Z,22.10
2018-07-20T06:18:12.074Z,22.30
2018-07-20T06:20:41.195Z,22.50
2018-07-20T06:23:10.317Z,22.40
2018-07-20T06:25:39.421Z,22.30
2018-07-20T06:28:08.494Z,22.40
2018-07-20T06:30:37.746Z,22.60
2018-07-20T06:33:07.318Z,22.90
2018-07-20T06:35:36.522Z,22.90
2018-07-20T06:38:05.729Z,23.10
2018-07-20T06:40:34.875Z,23.30
2018-07-20T06:43:04.042Z,23.40
2018-07-20T06:45:33.243Z,23.40
2018-07-20T06:48:02.486Z,23.70
2018-07-20T06:50:31.660Z,23.80
2018-07-20T06:53:00.725Z,23.80
2018-07-20T06:55:29.951Z,23.90
2018-07-20T06:57:59.088Z,24.00
2018-07-20T07:00:28.689Z,24.20
2018-07-20T07:02:58.143Z,24.20
2018-07-20T07:05:28.526Z,24.30
2018-07-20T07:07:58.111Z,24.30
2018-07-20T07:10:28.124Z,24.00
2018-07-20T07:12:57.920Z,23.70
2018-07-20T07:15:28.107Z,23.70
2018-07-20T07:17:58.214Z,23.80
2018-07-20T07:20:28.374Z,23.70
2018-07-20T07:22:58.149Z,23.70
2018-07-20T07:25:28.526Z,23.70
2018-07-20T07:27:58.592Z,23.80
2018-07-20T07:30:28.323Z,23.80
2018-07-20T07:32:58.461Z,23.80
2018-07-20T07:35:28.520Z,23.90
2018-07-20T07:37:58.525Z,24.10
2018-07-20T07:40:28.592Z,24.10
2018-07-20T07:42:58.475Z,24.20
2018-07-20T07:45:28.398Z,24.50
2018-07-20T07:47:58.557Z,24.60
2018-07-20T07:50:30.082Z,24.60
2018-07-20T07:52:59.153Z,24.60
2018-07-20T07:55:28.701Z,24.90
2018-07-20T07:57:58.660Z,25.00
2018-07-20T08:00:28.634Z,25.20
2018-07-20T08:02:58.849Z,25.30
2018-07-20T08:05:28.944Z,25.20
2018-07-20T08:07:58.810Z,25.20
2018-07-20T08:10:28.829Z,25.40
2018-07-20T08:12:58.513Z,25.80
2018-07-20T08:15:28.563Z,25.70
2018-07-20T08:18:01.402Z,25.80
2018-07-20T08:20:30.555Z,25.70
2018-07-20T08:23:00.664Z,25.60
2018-07-20T08:25:29.774Z,25.70
2018-07-20T08:27:58.933Z,25.80
2018-07-20T08:30:28.934Z,26.00
2018-07-20T08:33:00.228Z,26.20
2018-07-20T08:35:29.393Z,26.60
2018-07-20T08:37:59.090Z,26.70
2018-07-20T08:40:29.281Z,27.00
2018-07-20T08:42:59.017Z,27.20
2018-07-20T08:45:29.062Z,27.00
2018-07-20T08:47:59.107Z,26.90
2018-07-20T08:50:29.105Z,27.00
2018-07-20T08:52:58.951Z,26.90
2018-07-20T08:55:29.200Z,26.80
2018-07-20T08:57:59.181Z,26.50
2018-07-20T09:00:29.235Z,26.50
2018-07-20T09:02:59.399Z,26.80
2018-07-20T09:05:29.250Z,27.40
2018-07-20T09:07:59.285Z,27.30
2018-07-20T09:10:29.389Z,27.10
2018-07-20T09:12:59.351Z,26.90
2018-07-20T09:15:29.417Z,26.90
2018-07-20T09:17:59.466Z,27.00
2018-07-20T09:20:29.407Z,26.80
2018-07-20T09:22:59.473Z,26.50
2018-07-20T09:25:29.387Z,26.90
2018-07-20T09:27:59.492Z,27.20
2018-07-20T09:30:29.526Z,27.30
2018-07-20T09:32:59.603Z,27.50
2018-07-20T09:35:29.649Z,27.70
2018-07-20T09:59:32.892Z,28.80
2018-07-20T10:02:02.054Z,28.80
2018-07-20T10:04:31.301Z,28.80
2018-07-20T10:07:00.432Z,29.10
2018-07-20T10:09:30.213Z,29.40
2018-07-20T10:12:00.187Z,29.20
2018-07-20T10:14:30.178Z,29.00
2018-07-20T10:38:26.977Z,28.90
2018-07-20T10:40:56.084Z,29.10
2018-07-20T10:43:25.424Z,29.20
2018-07-20T10:45:54.636Z,29.30
2018-07-20T10:48:23.866Z,29.20
2018-07-20T10:50:53.024Z,29.30
2018-07-20T10:53:22.325Z,29.30
2018-07-20T10:55:51.889Z,29.20
2018-07-20T10:58:22.460Z,29.10
2018-07-20T11:00:51.577Z,29.40
2018-07-20T11:03:22.480Z,29.60
2018-07-20T11:05:51.713Z,29.70
2018-07-20T11:08:20.949Z,30.10
2018-07-20T11:10:50.000Z,30.40
2018-07-20T11:13:19.108Z,30.50
2018-07-20T11:15:48.179Z,30.90
2018-07-20T11:18:17.429Z,31.50
2018-07-20T11:20:47.963Z,31.50
2018-07-20T11:23:17.068Z,31.80
2018-07-20T11:25:47.320Z,32.00
2018-07-20T11:28:16.477Z,32.10
2018-07-20T11:30:46.646Z,32.00
2018-07-20T11:33:15.952Z,32.00
2018-07-20T11:35:45.256Z,31.80
2018-07-20T11:38:14.433Z,32.20
2018-07-20T11:40:43.692Z,32.30
2018-07-20T11:43:12.948Z,32.40
2018-07-20T11:45:42.192Z,32.50
2018-07-20T11:48:11.426Z,32.60
2018-07-20T11:50:40.650Z,32.80
2018-07-20T11:53:09.746Z,32.70
2018-07-20T11:55:38.849Z,32.80
2018-07-20T11:58:08.244Z,32.80
2018-07-20T12:00:37.595Z,33.10
2018-07-20T12:03:06.868Z,33.30
2018-07-20T12:05:36.091Z,33.30
2018-07-20T12:08:05.399Z,33.60
2018-07-20T12:10:34.417Z,33.80
2018-07-20T12:13:03.574Z,33.50
2018-07-20T12:15:32.720Z,34.10
2018-07-20T12:18:01.896Z,33.50
2018-07-20T12:20:32.008Z,33.20
2018-07-20T12:23:02.321Z,33.60
2018-07-20T12:25:31.992Z,33.70
2018-07-20T12:49:35.034Z,35.00
2018-07-20T12:52:04.608Z,34.50
2018-07-20T12:54:33.806Z,34.30
2018-07-20T12:57:03.006Z,34.40
2018-07-20T12:59:32.416Z,34.20
2018-07-20T13:02:02.553Z,34.00
2018-07-20T13:04:32.523Z,33.70
2018-07-20T13:07:02.574Z,33.20
2018-07-20T13:09:32.496Z,33.10
2018-07-20T13:12:02.722Z,33.00
2018-07-20T13:14:32.737Z,32.80
2018-07-20T13:17:02.701Z,33.10
2018-07-20T13:19:32.729Z,32.90
2018-07-20T13:22:02.908Z,32.60
2018-07-20T13:24:32.949Z,32.60
2018-07-20T13:27:02.942Z,32.90
2018-07-20T13:29:32.959Z,33.40
2018-07-20T13:32:03.030Z,33.80
2018-07-20T13:34:33.013Z,33.30
2018-07-20T13:37:03.121Z,33.40
2018-07-20T13:39:32.985Z,33.20
2018-07-20T13:42:03.089Z,33.50
2018-07-20T13:44:33.079Z,32.50
2018-07-20T13:47:03.114Z,31.90
2018-07-20T13:49:33.186Z,31.50
2018-07-20T13:52:03.236Z,31.40
2018-07-20T13:54:33.336Z,31.20
2018-07-20T13:57:03.325Z,31.00
2018-07-20T13:59:33.218Z,30.70
2018-07-20T14:02:03.290Z,30.60
2018-07-20T14:04:33.361Z,30.20
2018-07-20T14:07:03.333Z,30.00
2018-07-20T14:09:33.394Z,29.60
2018-07-20T14:12:03.512Z,29.70
2018-07-20T14:14:33.545Z,29.40
2018-07-20T14:38:23.156Z,29.20
2018-07-20T14:40:52.238Z,29.30
2018-07-20T14:43:21.541Z,29.40
2018-07-20T14:45:50.654Z,29.10
2018-07-20T14:48:19.701Z,28.90
2018-07-20T14:50:48.902Z,28.80
2018-07-20T14:53:18.393Z,28.70
2018-07-20T14:55:47.558Z,28.60
2018-07-20T14:58:16.710Z,28.40
2018-07-20T15:00:46.100Z,28.30
2018-07-20T15:03:15.564Z,28.30
2018-07-20T15:05:44.857Z,28.20
2018-07-20T15:08:14.133Z,28.20
2018-07-20T15:10:43.306Z,28.10
2018-07-20T15:13:12.577Z,28.20
2018-07-20T15:15:41.850Z,28.10
2018-07-20T15:18:10.965Z,28.00
2018-07-20T15:20:40.166Z,28.10
2018-07-20T15:23:09.522Z,28.10
2018-07-20T15:25:38.813Z,28.30
2018-07-20T15:28:08.101Z,28.80
2018-07-20T15:30:37.407Z,29.40
2018-07-20T15:33:07.162Z,29.70
2018-07-20T15:35:36.378Z,29.70
2018-07-20T15:38:05.646Z,29.50
2018-07-20T15:40:34.849Z,29.50
2018-07-20T15:43:04.273Z,29.50
2018-07-20T15:45:34.300Z,29.30
2018-07-20T15:48:04.282Z,29.30
2018-07-20T15:50:34.568Z,29.10
2018-07-20T15:55:34.393Z,29.10
2018-07-20T15:58:04.536Z,29.30
2018-07-20T16:00:34.592Z,29.30
2018-07-20T16:03:04.446Z,29.10
2018-07-20T16:05:34.590Z,29.40
2018-07-20T16:08:04.605Z,29.30
2018-07-20T16:10:34.614Z,29.20
2018-07-20T16:13:04.643Z,29.20
2018-07-20T16:15:34.633Z,29.40
2018-07-20T16:18:04.605Z,29.60
2018-07-20T16:20:34.880Z,29.60
2018-07-20T16:23:04.754Z,29.70
2018-07-20T16:25:34.943Z,29.80
2018-07-20T16:28:05.819Z,29.80
2018-07-20T16:30:35.045Z,29.70
2018-07-20T16:33:04.933Z,29.60
2018-07-20T16:35:35.062Z,29.50
2018-07-20T16:38:05.286Z,29.60
2018-07-20T16:40:35.733Z,29.70
2018-07-20T16:43:05.170Z,29.90
2018-07-20T16:45:35.145Z,30.10
2018-07-20T16:48:05.422Z,30.00
2018-07-20T16:50:35.560Z,30.20
2018-07-20T16:53:05.356Z,30.20
2018-07-20T16:55:35.204Z,30.00
2018-07-20T16:58:05.441Z,29.90
2018-07-20T17:00:34.863Z,29.60
2018-07-20T17:03:04.981Z,29.40
2018-07-20T17:05:35.196Z,29.30
2018-07-20T17:08:05.262Z,29.30
2018-07-20T17:10:36.055Z,29.20
2018-07-20T17:13:05.486Z,29.10
2018-07-20T17:15:35.460Z,28.90
2018-07-20T17:18:05.178Z,28.80
2018-07-20T17:20:35.296Z,28.60
2018-07-20T17:23:05.371Z,28.30
2018-07-20T17:25:35.509Z,28.00
2018-07-20T17:28:05.689Z,27.80
2018-07-20T17:30:35.794Z,27.70
2018-07-20T17:33:05.632Z,27.50
2018-07-20T17:35:36.309Z,27.40
2018-07-20T17:38:05.536Z,27.30
2018-07-20T17:40:35.668Z,27.40
2018-07-20T17:43:05.793Z,27.20
2018-07-20T17:45:35.804Z,27.10
2018-07-20T17:48:05.709Z,26.90
2018-07-20T17:50:36.036Z,27.00
2018-07-20T17:53:05.849Z,27.00
2018-07-20T17:55:35.794Z,26.90
2018-07-20T17:58:05.854Z,26.80
2018-07-20T18:00:37.163Z,26.70
2018-07-20T18:03:06.491Z,26.70
2018-07-20T18:05:37.587Z,26.60
2018-07-20T18:08:06.865Z,26.50
2018-07-20T18:10:36.326Z,26.50
2018-07-20T18:13:05.950Z,26.40
2018-07-20T18:15:36.931Z,26.40
2018-07-20T18:18:06.031Z,26.30
2018-07-20T18:20:37.462Z,26.30
2018-07-20T18:23:06.598Z,26.30
2018-07-20T18:25:37.329Z,26.40
2018-07-20T18:28:06.663Z,26.20
2018-07-20T18:30:36.388Z,26.20
2018-07-20T18:33:06.329Z,26.10
2018-07-20T18:35:36.594Z,26.10
2018-07-20T18:38:06.507Z,26.00
2018-07-20T18:40:36.727Z,25.90
2018-07-20T18:43:06.458Z,26.20
2018-07-20T18:45:36.577Z,26.20
2018-07-20T18:48:06.692Z,26.00
2018-07-20T18:50:36.464Z,25.90
2018-07-20T18:53:06.569Z,25.80
2018-07-20T18:55:37.660Z,25.70
2018-07-20T18:58:07.213Z,25.60
2018-07-20T19:00:36.441Z,25.60
2018-07-20T19:03:06.872Z,25.70
2018-07-20T19:05:36.497Z,25.70
2018-07-20T19:08:06.940Z,25.60
2018-07-20T19:10:36.715Z,25.60
2018-07-20T19:13:07.766Z,25.60
2018-07-20T19:15:37.043Z,25.60
2018-07-20T19:18:07.566Z,25.60
2018-07-20T19:20:36.864Z,25.70
2018-07-20T19:23:08.044Z,25.60
2018-07-20T19:25:37.376Z,25.50
2018-07-20T19:28:07.397Z,25.50
2018-07-20T19:30:37.005Z,25.40
2018-07-20T19:33:07.324Z,25.40
2018-07-20T19:35:37.626Z,25.40
2018-07-20T19:38:07.408Z,25.30
2018-07-20T19:40:37.061Z,25.30
2018-07-20T19:43:07.170Z,25.30
2018-07-20T19:45:37.105Z,25.20
2018-07-20T19:48:07.307Z,25.00
2018-07-20T19:50:37.228Z,25.00
2018-07-20T19:53:08.069Z,24.90
2018-07-20T19:55:37.302Z,24.70
2018-07-20T19:58:07.344Z,24.70
2018-07-20T20:00:37.873Z,24.60
2018-07-20T20:03:07.763Z,24.70
2018-07-20T20:05:37.579Z,24.50
2018-07-20T20:08:07.468Z,24.20
2018-07-20T20:10:37.708Z,24.20
2018-07-20T20:13:08.807Z,24.20
2018-07-20T20:15:38.311Z,24.20
2018-07-20T20:18:07.483Z,24.50
2018-07-20T20:20:37.321Z,24.60
2018-07-20T20:23:07.717Z,24.50
2018-07-20T20:25:37.674Z,24.60
2018-07-20T20:28:07.674Z,24.50
2018-07-20T20:30:37.865Z,24.40
2018-07-20T20:33:07.685Z,24.10
2018-07-20T20:35:37.992Z,23.60
2018-07-20T20:38:07.801Z,23.30
2018-07-20T20:40:37.859Z,22.90
2018-07-20T20:43:07.865Z,22.80
2018-07-20T20:45:37.926Z,22.50
2018-07-20T20:48:08.003Z,22.40
2018-07-20T20:50:38.133Z,22.30
2018-07-20T20:53:08.199Z,22.00
2018-07-20T20:55:38.013Z,21.90
2018-07-20T20:58:08.062Z,21.80
2018-07-20T21:00:38.034Z,21.60
2018-07-20T21:03:07.903Z,21.40
2018-07-20T21:05:38.014Z,21.40
2018-07-20T21:08:08.312Z,21.30
2018-07-20T21:10:38.453Z,21.20
2018-07-20T21:13:08.290Z,21.20
2018-07-20T21:15:38.167Z,20.80
2018-07-20T21:18:08.236Z,20.80
2018-07-20T21:20:38.399Z,20.60
2018-07-20T21:23:08.499Z,20.60
2018-07-20T21:25:38.960Z,20.70
2018-07-20T21:28:08.900Z,20.80
2018-07-20T21:30:39.073Z,20.80
2018-07-20T21:33:08.876Z,20.90
2018-07-20T21:35:38.098Z,20.90
2018-07-20T21:38:07.784Z,20.90
2018-07-20T21:40:36.998Z,21.10
2018-07-20T21:43:06.345Z,21.10
2018-07-20T21:45:35.641Z,21.00
2018-07-20T21:48:04.959Z,21.10
2018-07-20T21:50:34.600Z,21.00
2018-07-20T21:53:03.909Z,20.70
2018-07-20T21:55:33.181Z,20.60
2018-07-20T21:58:02.621Z,20.50
2018-07-20T22:00:31.786Z,20.30
2018-07-20T22:03:01.155Z,20.30
2018-07-20T22:05:30.366Z,20.30
2018-07-20T22:07:59.466Z,20.40
2018-07-20T22:10:31.410Z,20.40
2018-07-20T22:13:00.546Z,20.30
2018-07-20T22:15:29.695Z,20.00
2018-07-20T22:17:59.042Z,19.80
2018-07-20T22:20:28.198Z,19.80
2018-07-20T22:22:57.298Z,19.70
2018-07-20T22:25:27.409Z,19.70
2018-07-20T22:27:56.774Z,19.70
2018-07-20T22:30:26.230Z,19.80
2018-07-20T22:32:55.514Z,19.70
2018-07-20T22:35:24.910Z,19.70
2018-07-20T22:37:54.103Z,19.70
2018-07-20T22:40:23.448Z,19.70
2018-07-20T22:42:52.816Z,19.70
2018-07-20T22:45:22.119Z,19.70
2018-07-20T22:47:51.287Z,19.80
2018-07-20T22:50:20.561Z,19.60
2018-07-20T22:52:49.773Z,19.70
2018-07-20T22:55:19.812Z,19.80
2018-07-20T22:57:49.105Z,19.80
2018-07-20T23:00:18.479Z,19.90
2018-07-20T23:02:47.827Z,19.90
2018-07-20T23:05:17.032Z,19.80
2018-07-20T23:07:46.314Z,19.90
2018-07-20T23:10:15.534Z,20.00
2018-07-20T23:12:44.836Z,20.00
2018-07-20T23:15:14.218Z,20.00
2018-07-20T23:17:43.394Z,20.10
2018-07-20T23:20:12.558Z,20.10
2018-07-20T23:22:41.783Z,20.00
2018-07-20T23:25:10.880Z,20.10
2018-07-20T23:27:40.517Z,20.00
2018-07-20T23:30:10.561Z,19.90
2018-07-20T23:32:40.662Z,19.90
2018-07-20T23:35:10.558Z,19.90
2018-07-20T23:37:40.621Z,19.80
2018-07-20T23:40:10.606Z,19.80
2018-07-20T23:42:40.590Z,19.80
2018-07-20T23:45:10.250Z,19.80
2018-07-20T23:47:40.574Z,19.90
2018-07-20T23:50:10.646Z,19.90
2018-07-20T23:52:40.790Z,19.70
2018-07-20T23:55:10.725Z,19.60
2018-07-20T23:57:40.757Z,19.60
